sensor_id;sensor_type;location;lat;lon;timestamp;P1;durP1;ratioP1;P2;durP2;ratioP2
60847;SDS011;46681;47.696;9.140;2022-09-09T00:04:19;3.92;;;1.25;;
60847;SDS011;46681;47.696;9.140;2022-09-09T00:13:33;2.30;;;0.80;;
60847;SDS011;46681;47.696;9.140;2022-09-09T00:16:26;3.15;;;1.00;;
60847;SDS011;46681;47.696;9.140;2022-09-09T00:22:06;2.85;;;1.10;;
60847;SDS011;46681;47.696;9.140;2022-09-09T00:24:56;3.72;;;0.90;;
60847;SDS011;46681;47.696;9.140;2022-09-09T00:27:35;2.03;;;1.00;;
60847;SDS011;46681;47.696;9.140;2022-09-09T00:30:25;1.85;;;0.85;;
60847;SDS011;46681;47.696;9.140;2022-09-09T00:33:00;3.40;;;1.00;;
60847;SDS011;46681;47.696;9.140;2022-09-09T00:38:28;4.38;;;1.00;;
60847;SDS011;46681;47.696;9.140;2022-09-09T00:55:53;3.88;;;1.00;;
60847;SDS011;46681;47.696;9.140;2022-09-09T00:58:35;3.90;;;1.10;;
60847;SDS011;46681;47.696;9.140;2022-09-09T01:01:13;4.15;;;1.00;;
60847;SDS011;46681;47.696;9.140;2022-09-09T01:06:32;5.40;;;1.20;;
60847;SDS011;46681;47.696;9.140;2022-09-09T01:12:09;2.45;;;1.00;;
60847;SDS011;46681;47.696;9.140;2022-09-09T01:17:31;5.13;;;1.30;;
60847;SDS011;46681;47.696;9.140;2022-09-09T01:22:56;2.28;;;1.00;;
60847;SDS011;46681;47.696;9.140;2022-09-09T01:28:48;3.45;;;0.95;;
60847;SDS011;46681;47.696;9.140;2022-09-09T01:31:15;5.32;;;1.30;;
60847;SDS011;46681;47.696;9.140;2022-09-09T01:33:59;3.22;;;1.00;;
60847;SDS011;46681;47.696;9.140;2022-09-09T01:39:35;4.00;;;1.13;;
60847;SDS011;46681;47.696;9.140;2022-09-09T01:42:08;3.25;;;1.10;;
60847;SDS011;46681;47.696;9.140;2022-09-09T01:44:39;2.75;;;1.00;;
60847;SDS011;46681;47.696;9.140;2022-09-09T01:47:07;3.60;;;1.23;;
60847;SDS011;46681;47.696;9.140;2022-09-09T01:49:34;2.70;;;0.93;;
60847;SDS011;46681;47.696;9.140;2022-09-09T01:52:01;5.35;;;1.20;;
60847;SDS011;46681;47.696;9.140;2022-09-09T01:54:29;3.90;;;1.13;;
60847;SDS011;46681;47.696;9.140;2022-09-09T01:57:08;4.28;;;1.10;;
60847;SDS011;46681;47.696;9.140;2022-09-09T02:02:48;3.17;;;1.00;;
60847;SDS011;46681;47.696;9.140;2022-09-09T02:05:40;3.45;;;1.10;;
60847;SDS011;46681;47.696;9.140;2022-09-09T02:08:10;4.90;;;1.17;;
60847;SDS011;46681;47.696;9.140;2022-09-09T02:13:30;5.00;;;1.10;;
60847;SDS011;46681;47.696;9.140;2022-09-09T02:16:07;4.40;;;1.20;;
60847;SDS011;46681;47.696;9.140;2022-09-09T02:21:23;4.05;;;1.20;;
60847;SDS011;46681;47.696;9.140;2022-09-09T02:23:54;3.45;;;0.93;;
60847;SDS011;46681;47.696;9.140;2022-09-09T02:26:23;2.05;;;1.00;;
60847;SDS011;46681;47.696;9.140;2022-09-09T02:28:57;6.20;;;1.27;;
60847;SDS011;46681;47.696;9.140;2022-09-09T02:31:27;6.18;;;1.50;;
60847;SDS011;46681;47.696;9.140;2022-09-09T02:33:55;2.72;;;1.10;;
60847;SDS011;46681;47.696;9.140;2022-09-09T02:36:27;4.63;;;1.33;;
60847;SDS011;46681;47.696;9.140;2022-09-09T02:39:04;2.25;;;1.00;;
60847;SDS011;46681;47.696;9.140;2022-09-09T02:41:35;3.47;;;1.00;;
60847;SDS011;46681;47.696;9.140;2022-09-09T02:44:13;3.53;;;1.20;;
60847;SDS011;46681;47.696;9.140;2022-09-09T02:54:33;4.72;;;1.15;;
60847;SDS011;46681;47.696;9.140;2022-09-09T02:57:08;3.72;;;1.20;;
60847;SDS011;46681;47.696;9.140;2022-09-09T02:59:58;3.42;;;1.20;;
60847;SDS011;46681;47.696;9.140;2022-09-09T03:02:26;4.07;;;1.20;;
60847;SDS011;46681;47.696;9.140;2022-09-09T03:04:55;4.80;;;1.17;;
60847;SDS011;46681;47.696;9.140;2022-09-09T03:07:24;6.55;;;1.40;;
60847;SDS011;46681;47.696;9.140;2022-09-09T03:09:53;5.68;;;1.33;;
60847;SDS011;46681;47.696;9.140;2022-09-09T03:12:18;4.43;;;1.40;;
60847;SDS011;46681;47.696;9.140;2022-09-09T03:14:45;5.32;;;1.30;;
60847;SDS011;46681;47.696;9.140;2022-09-09T03:17:12;5.05;;;1.17;;
60847;SDS011;46681;47.696;9.140;2022-09-09T03:19:39;2.17;;;1.10;;
60847;SDS011;46681;47.696;9.140;2022-09-09T03:22:09;5.05;;;1.30;;
60847;SDS011;46681;47.696;9.140;2022-09-09T03:24:37;6.40;;;1.40;;
60847;SDS011;46681;47.696;9.140;2022-09-09T03:27:02;4.10;;;1.10;;
60847;SDS011;46681;47.696;9.140;2022-09-09T03:29:29;5.57;;;1.10;;
60847;SDS011;46681;47.696;9.140;2022-09-09T03:31:56;3.83;;;1.20;;
60847;SDS011;46681;47.696;9.140;2022-09-09T03:34:24;3.25;;;1.10;;
60847;SDS011;46681;47.696;9.140;2022-09-09T03:36:53;3.33;;;1.10;;
60847;SDS011;46681;47.696;9.140;2022-09-09T03:39:26;3.90;;;1.20;;
60847;SDS011;46681;47.696;9.140;2022-09-09T03:41:54;5.75;;;1.30;;
60847;SDS011;46681;47.696;9.140;2022-09-09T03:44:22;3.42;;;1.20;;
60847;SDS011;46681;47.696;9.140;2022-09-09T03:46:49;4.32;;;1.23;;
60847;SDS011;46681;47.696;9.140;2022-09-09T03:49:18;3.22;;;1.17;;
60847;SDS011;46681;47.696;9.140;2022-09-09T03:51:44;3.83;;;1.20;;
60847;SDS011;46681;47.696;9.140;2022-09-09T03:54:17;5.07;;;1.30;;
60847;SDS011;46681;47.696;9.140;2022-09-09T03:56:43;4.22;;;1.40;;
60847;SDS011;46681;47.696;9.140;2022-09-09T03:59:10;4.40;;;1.20;;
60847;SDS011;46681;47.696;9.140;2022-09-09T04:01:38;3.30;;;1.20;;
60847;SDS011;46681;47.696;9.140;2022-09-09T04:04:05;5.07;;;1.20;;
60847;SDS011;46681;47.696;9.140;2022-09-09T04:06:30;5.25;;;1.30;;
60847;SDS011;46681;47.696;9.140;2022-09-09T04:08:59;2.90;;;1.10;;
60847;SDS011;46681;47.696;9.140;2022-09-09T04:11:26;3.63;;;1.20;;
60847;SDS011;46681;47.696;9.140;2022-09-09T04:13:55;5.70;;;1.40;;
60847;SDS011;46681;47.696;9.140;2022-09-09T04:16:23;4.53;;;1.30;;
60847;SDS011;46681;47.696;9.140;2022-09-09T04:18:52;2.78;;;1.10;;
60847;SDS011;46681;47.696;9.140;2022-09-09T04:21:19;3.28;;;1.15;;
60847;SDS011;46681;47.696;9.140;2022-09-09T04:23:47;4.38;;;1.30;;
60847;SDS011;46681;47.696;9.140;2022-09-09T04:26:14;5.28;;;1.30;;
60847;SDS011;46681;47.696;9.140;2022-09-09T04:28:40;6.03;;;1.52;;
60847;SDS011;46681;47.696;9.140;2022-09-09T04:31:08;5.70;;;1.30;;
60847;SDS011;46681;47.696;9.140;2022-09-09T04:33:49;4.72;;;1.33;;
60847;SDS011;46681;47.696;9.140;2022-09-09T04:36:21;4.40;;;1.30;;
60847;SDS011;46681;47.696;9.140;2022-09-09T04:38:53;4.78;;;1.20;;
60847;SDS011;46681;47.696;9.140;2022-09-09T04:41:19;5.60;;;1.30;;
60847;SDS011;46681;47.696;9.140;2022-09-09T04:43:45;3.33;;;1.20;;
60847;SDS011;46681;47.696;9.140;2022-09-09T04:46:25;4.80;;;1.30;;
60847;SDS011;46681;47.696;9.140;2022-09-09T04:48:55;4.40;;;1.23;;
60847;SDS011;46681;47.696;9.140;2022-09-09T04:51:27;4.10;;;1.40;;
60847;SDS011;46681;47.696;9.140;2022-09-09T04:54:02;4.65;;;1.27;;
60847;SDS011;46681;47.696;9.140;2022-09-09T04:56:36;4.90;;;1.52;;
60847;SDS011;46681;47.696;9.140;2022-09-09T04:59:03;4.78;;;1.23;;
60847;SDS011;46681;47.696;9.140;2022-09-09T05:01:28;4.55;;;1.27;;
60847;SDS011;46681;47.696;9.140;2022-09-09T05:04:01;5.40;;;1.55;;
60847;SDS011;46681;47.696;9.140;2022-09-09T05:06:28;4.85;;;1.27;;
60847;SDS011;46681;47.696;9.140;2022-09-09T05:08:59;2.97;;;1.13;;
60847;SDS011;46681;47.696;9.140;2022-09-09T05:11:29;3.80;;;1.20;;
60847;SDS011;46681;47.696;9.140;2022-09-09T05:13:59;4.75;;;1.40;;
60847;SDS011;46681;47.696;9.140;2022-09-09T05:16:27;4.32;;;1.30;;
60847;SDS011;46681;47.696;9.140;2022-09-09T05:18:54;3.83;;;1.30;;
60847;SDS011;46681;47.696;9.140;2022-09-09T05:21:29;5.43;;;1.48;;
60847;SDS011;46681;47.696;9.140;2022-09-09T05:26:26;3.85;;;1.20;;
60847;SDS011;46681;47.696;9.140;2022-09-09T05:28:55;4.25;;;1.20;;
60847;SDS011;46681;47.696;9.140;2022-09-09T05:31:23;4.07;;;1.30;;
60847;SDS011;46681;47.696;9.140;2022-09-09T05:34:04;3.92;;;1.20;;
60847;SDS011;46681;47.696;9.140;2022-09-09T05:36:35;4.18;;;1.40;;
60847;SDS011;46681;47.696;9.140;2022-09-09T05:39:06;5.32;;;1.38;;
60847;SDS011;46681;47.696;9.140;2022-09-09T05:41:34;6.25;;;1.30;;
60847;SDS011;46681;47.696;9.140;2022-09-09T05:44:07;4.53;;;1.30;;
60847;SDS011;46681;47.696;9.140;2022-09-09T05:46:45;2.92;;;1.13;;
60847;SDS011;46681;47.696;9.140;2022-09-09T05:49:22;3.80;;;1.20;;
60847;SDS011;46681;47.696;9.140;2022-09-09T05:51:49;4.15;;;1.30;;
60847;SDS011;46681;47.696;9.140;2022-09-09T05:54:26;5.18;;;1.30;;
60847;SDS011;46681;47.696;9.140;2022-09-09T05:57:03;3.85;;;1.20;;
60847;SDS011;46681;47.696;9.140;2022-09-09T05:59:30;5.30;;;1.30;;
60847;SDS011;46681;47.696;9.140;2022-09-09T06:02:08;3.60;;;1.13;;
60847;SDS011;46681;47.696;9.140;2022-09-09T06:04:43;4.25;;;1.20;;
60847;SDS011;46681;47.696;9.140;2022-09-09T06:07:13;3.58;;;1.10;;
60847;SDS011;46681;47.696;9.140;2022-09-09T06:09:43;3.78;;;1.30;;
60847;SDS011;46681;47.696;9.140;2022-09-09T06:12:22;5.22;;;1.30;;
60847;SDS011;46681;47.696;9.140;2022-09-09T06:14:50;5.10;;;1.33;;
60847;SDS011;46681;47.696;9.140;2022-09-09T06:17:21;4.97;;;1.30;;
60847;SDS011;46681;47.696;9.140;2022-09-09T06:19:49;4.65;;;1.30;;
60847;SDS011;46681;47.696;9.140;2022-09-09T06:22:14;5.53;;;1.38;;
60847;SDS011;46681;47.696;9.140;2022-09-09T06:24:43;6.85;;;1.40;;
60847;SDS011;46681;47.696;9.140;2022-09-09T06:27:09;5.95;;;1.50;;
60847;SDS011;46681;47.696;9.140;2022-09-09T06:29:42;5.85;;;1.50;;
60847;SDS011;46681;47.696;9.140;2022-09-09T06:32:09;5.55;;;1.55;;
60847;SDS011;46681;47.696;9.140;2022-09-09T06:34:47;5.82;;;1.30;;
60847;SDS011;46681;47.696;9.140;2022-09-09T06:37:19;5.68;;;1.40;;
60847;SDS011;46681;47.696;9.140;2022-09-09T06:39:48;6.20;;;1.40;;
60847;SDS011;46681;47.696;9.140;2022-09-09T06:42:19;5.65;;;1.30;;
60847;SDS011;46681;47.696;9.140;2022-09-09T06:44:55;4.53;;;1.38;;
60847;SDS011;46681;47.696;9.140;2022-09-09T06:47:25;4.15;;;1.30;;
60847;SDS011;46681;47.696;9.140;2022-09-09T06:50:03;6.05;;;1.45;;
60847;SDS011;46681;47.696;9.140;2022-09-09T06:52:37;5.65;;;1.40;;
60847;SDS011;46681;47.696;9.140;2022-09-09T06:55:16;7.28;;;1.48;;
60847;SDS011;46681;47.696;9.140;2022-09-09T06:57:47;4.03;;;1.30;;
60847;SDS011;46681;47.696;9.140;2022-09-09T07:00:27;5.30;;;1.30;;
60847;SDS011;46681;47.696;9.140;2022-09-09T07:02:53;5.50;;;1.27;;
60847;SDS011;46681;47.696;9.140;2022-09-09T07:05:35;3.47;;;1.20;;
60847;SDS011;46681;47.696;9.140;2022-09-09T07:08:38;4.47;;;1.20;;
60847;SDS011;46681;47.696;9.140;2022-09-09T07:11:15;4.10;;;1.30;;
60847;SDS011;46681;47.696;9.140;2022-09-09T07:13:44;4.75;;;1.15;;
60847;SDS011;46681;47.696;9.140;2022-09-09T07:16:15;4.25;;;1.10;;
60847;SDS011;46681;47.696;9.140;2022-09-09T07:19:00;4.22;;;1.30;;
60847;SDS011;46681;47.696;9.140;2022-09-09T07:21:39;4.80;;;1.20;;
60847;SDS011;46681;47.696;9.140;2022-09-09T07:24:14;4.57;;;1.30;;
60847;SDS011;46681;47.696;9.140;2022-09-09T07:26:46;5.78;;;1.40;;
60847;SDS011;46681;47.696;9.140;2022-09-09T07:29:17;4.53;;;1.30;;
60847;SDS011;46681;47.696;9.140;2022-09-09T07:31:59;3.97;;;1.30;;
60847;SDS011;46681;47.696;9.140;2022-09-09T07:34:39;2.83;;;1.17;;
60847;SDS011;46681;47.696;9.140;2022-09-09T07:37:07;5.32;;;1.45;;
60847;SDS011;46681;47.696;9.140;2022-09-09T07:39:42;4.03;;;1.20;;
60847;SDS011;46681;47.696;9.140;2022-09-09T07:42:16;3.80;;;1.15;;
60847;SDS011;46681;47.696;9.140;2022-09-09T07:44:45;3.70;;;1.20;;
60847;SDS011;46681;47.696;9.140;2022-09-09T07:47:12;2.67;;;1.13;;
60847;SDS011;46681;47.696;9.140;2022-09-09T07:49:47;3.90;;;1.17;;
60847;SDS011;46681;47.696;9.140;2022-09-09T07:52:20;4.22;;;1.30;;
60847;SDS011;46681;47.696;9.140;2022-09-09T07:54:52;3.03;;;1.17;;
60847;SDS011;46681;47.696;9.140;2022-09-09T07:57:18;5.85;;;1.10;;
60847;SDS011;46681;47.696;9.140;2022-09-09T07:59:51;3.50;;;1.10;;
60847;SDS011;46681;47.696;9.140;2022-09-09T08:02:25;3.08;;;1.20;;
60847;SDS011;46681;47.696;9.140;2022-09-09T08:08:23;3.35;;;1.10;;
60847;SDS011;46681;47.696;9.140;2022-09-09T08:11:14;2.90;;;1.05;;
60847;SDS011;46681;47.696;9.140;2022-09-09T08:13:42;2.85;;;1.08;;
60847;SDS011;46681;47.696;9.140;2022-09-09T08:16:12;3.25;;;1.10;;
60847;SDS011;46681;47.696;9.140;2022-09-09T08:18:46;2.90;;;1.00;;
60847;SDS011;46681;47.696;9.140;2022-09-09T08:21:19;3.60;;;1.00;;
60847;SDS011;46681;47.696;9.140;2022-09-09T08:24:10;3.25;;;0.93;;
60847;SDS011;46681;47.696;9.140;2022-09-09T08:26:44;3.50;;;1.05;;
60847;SDS011;46681;47.696;9.140;2022-09-09T08:29:34;3.03;;;1.00;;
60847;SDS011;46681;47.696;9.140;2022-09-09T08:32:11;2.97;;;0.90;;
60847;SDS011;46681;47.696;9.140;2022-09-09T08:34:44;1.60;;;0.85;;
60847;SDS011;46681;47.696;9.140;2022-09-09T08:37:13;2.90;;;0.90;;
60847;SDS011;46681;47.696;9.140;2022-09-09T08:39:41;3.38;;;0.98;;
60847;SDS011;46681;47.696;9.140;2022-09-09T08:42:34;3.05;;;1.00;;
60847;SDS011;46681;47.696;9.140;2022-09-09T08:51:03;2.92;;;1.00;;
60847;SDS011;46681;47.696;9.140;2022-09-09T08:53:40;3.58;;;0.98;;
60847;SDS011;46681;47.696;9.140;2022-09-09T08:56:37;2.83;;;1.00;;
60847;SDS011;46681;47.696;9.140;2022-09-09T08:59:12;2.13;;;0.95;;
60847;SDS011;46681;47.696;9.140;2022-09-09T09:13:27;3.17;;;0.93;;
60847;SDS011;46681;47.696;9.140;2022-09-09T09:19:25;2.92;;;0.90;;
60847;SDS011;46681;47.696;9.140;2022-09-09T09:30:56;4.05;;;0.93;;
60847;SDS011;46681;47.696;9.140;2022-09-09T09:33:55;1.85;;;0.80;;
60847;SDS011;46681;47.696;9.140;2022-09-09T09:36:44;2.30;;;0.90;;
60847;SDS011;46681;47.696;9.140;2022-09-09T09:39:31;3.75;;;1.10;;
60847;SDS011;46681;47.696;9.140;2022-09-09T09:42:16;3.13;;;0.98;;
60847;SDS011;46681;47.696;9.140;2022-09-09T09:45:06;3.08;;;1.00;;
60847;SDS011;46681;47.696;9.140;2022-09-09T09:48:14;4.15;;;1.05;;
60847;SDS011;46681;47.696;9.140;2022-09-09T09:53:37;2.35;;;0.90;;
60847;SDS011;46681;47.696;9.140;2022-09-09T09:56:17;3.95;;;1.02;;
60847;SDS011;46681;47.696;9.140;2022-09-09T09:59:04;2.88;;;0.90;;
60847;SDS011;46681;47.696;9.140;2022-09-09T10:01:40;1.95;;;0.82;;
60847;SDS011;46681;47.696;9.140;2022-09-09T10:04:20;3.65;;;1.00;;
60847;SDS011;46681;47.696;9.140;2022-09-09T10:07:09;3.60;;;0.93;;
60847;SDS011;46681;47.696;9.140;2022-09-09T10:13:33;2.60;;;0.80;;
60847;SDS011;46681;47.696;9.140;2022-09-09T10:25:19;4.60;;;1.00;;
60847;SDS011;46681;47.696;9.140;2022-09-09T10:28:38;4.20;;;0.80;;
60847;SDS011;46681;47.696;9.140;2022-09-09T10:40:43;3.10;;;0.95;;
60847;SDS011;46681;47.696;9.140;2022-09-09T10:44:06;3.33;;;0.90;;
60847;SDS011;46681;47.696;9.140;2022-09-09T10:55:31;2.63;;;0.80;;
60847;SDS011;46681;47.696;9.140;2022-09-09T10:58:28;2.42;;;0.70;;
60847;SDS011;46681;47.696;9.140;2022-09-09T11:04:58;2.40;;;0.80;;
60847;SDS011;46681;47.696;9.140;2022-09-09T11:07:55;4.68;;;1.00;;
60847;SDS011;46681;47.696;9.140;2022-09-09T11:14:15;3.20;;;0.90;;
60847;SDS011;46681;47.696;9.140;2022-09-09T11:19:50;5.85;;;0.90;;
60847;SDS011;46681;47.696;9.140;2022-09-09T11:22:27;3.72;;;0.98;;
60847;SDS011;46681;47.696;9.140;2022-09-09T11:42:43;2.75;;;0.77;;
60847;SDS011;46681;47.696;9.140;2022-09-09T11:45:30;2.80;;;0.90;;
60847;SDS011;46681;47.696;9.140;2022-09-09T11:48:57;3.50;;;0.93;;
60847;SDS011;46681;47.696;9.140;2022-09-09T11:51:07;4.03;;;1.10;;
60847;SDS011;46681;47.696;9.140;2022-09-09T11:53:50;8.38;;;1.10;;
60847;SDS011;46681;47.696;9.140;2022-09-09T11:56:28;3.45;;;0.90;;
60847;SDS011;46681;47.696;9.140;2022-09-09T12:02:15;4.03;;;1.00;;
60847;SDS011;46681;47.696;9.140;2022-09-09T12:05:09;4.28;;;0.82;;
60847;SDS011;46681;47.696;9.140;2022-09-09T12:07:55;4.40;;;0.93;;
60847;SDS011;46681;47.696;9.140;2022-09-09T12:10:38;2.40;;;0.80;;
60847;SDS011;46681;47.696;9.140;2022-09-09T12:13:40;3.00;;;0.90;;
60847;SDS011;46681;47.696;9.140;2022-09-09T12:16:38;2.00;;;0.63;;
60847;SDS011;46681;47.696;9.140;2022-09-09T12:22:35;2.47;;;0.80;;
60847;SDS011;46681;47.696;9.140;2022-09-09T12:25:47;2.95;;;0.93;;
60847;SDS011;46681;47.696;9.140;2022-09-09T12:31:09;3.65;;;0.80;;
60847;SDS011;46681;47.696;9.140;2022-09-09T12:34:57;3.10;;;0.90;;
60847;SDS011;46681;47.696;9.140;2022-09-09T12:40:40;2.05;;;0.73;;
60847;SDS011;46681;47.696;9.140;2022-09-09T12:45:57;3.47;;;0.90;;
60847;SDS011;46681;47.696;9.140;2022-09-09T12:48:59;2.95;;;0.80;;
60847;SDS011;46681;47.696;9.140;2022-09-09T12:51:40;1.95;;;0.80;;
60847;SDS011;46681;47.696;9.140;2022-09-09T12:54:14;3.00;;;0.88;;
60847;SDS011;46681;47.696;9.140;2022-09-09T13:00:04;3.67;;;0.80;;
60847;SDS011;46681;47.696;9.140;2022-09-09T13:02:54;2.75;;;0.77;;
60847;SDS011;46681;47.696;9.140;2022-09-09T13:05:43;2.28;;;0.80;;
60847;SDS011;46681;47.696;9.140;2022-09-09T13:08:12;2.15;;;0.80;;
60847;SDS011;46681;47.696;9.140;2022-09-09T13:11:07;2.33;;;0.77;;
60847;SDS011;46681;47.696;9.140;2022-09-09T13:14:05;1.80;;;0.70;;
60847;SDS011;46681;47.696;9.140;2022-09-09T13:16:55;2.77;;;0.87;;
60847;SDS011;46681;47.696;9.140;2022-09-09T13:19:52;2.83;;;0.80;;
60847;SDS011;46681;47.696;9.140;2022-09-09T13:25:02;2.72;;;0.73;;
60847;SDS011;46681;47.696;9.140;2022-09-09T13:28:38;2.38;;;0.75;;
60847;SDS011;46681;47.696;9.140;2022-09-09T13:31:05;1.85;;;0.70;;
60847;SDS011;46681;47.696;9.140;2022-09-09T13:37:41;2.05;;;0.77;;
60847;SDS011;46681;47.696;9.140;2022-09-09T13:40:23;4.32;;;0.93;;
60847;SDS011;46681;47.696;9.140;2022-09-09T13:43:02;3.60;;;0.80;;
60847;SDS011;46681;47.696;9.140;2022-09-09T13:46:01;2.63;;;0.82;;
60847;SDS011;46681;47.696;9.140;2022-09-09T13:52:15;4.22;;;0.90;;
60847;SDS011;46681;47.696;9.140;2022-09-09T14:03:47;3.00;;;0.80;;
60847;SDS011;46681;47.696;9.140;2022-09-09T14:06:18;4.25;;;0.82;;
60847;SDS011;46681;47.696;9.140;2022-09-09T14:09:13;2.60;;;0.80;;
60847;SDS011;46681;47.696;9.140;2022-09-09T14:11:56;4.15;;;1.00;;
60847;SDS011;46681;47.696;9.140;2022-09-09T14:14:35;2.53;;;0.88;;
60847;SDS011;46681;47.696;9.140;2022-09-09T14:17:12;3.25;;;0.82;;
60847;SDS011;46681;47.696;9.140;2022-09-09T14:20:03;4.40;;;0.80;;
60847;SDS011;46681;47.696;9.140;2022-09-09T14:25:34;4.28;;;0.90;;
60847;SDS011;46681;47.696;9.140;2022-09-09T14:28:14;2.03;;;0.70;;
60847;SDS011;46681;47.696;9.140;2022-09-09T14:31:17;3.13;;;0.90;;
60847;SDS011;46681;47.696;9.140;2022-09-09T14:33:44;3.95;;;0.90;;
60847;SDS011;46681;47.696;9.140;2022-09-09T14:36:18;1.27;;;0.80;;
60847;SDS011;46681;47.696;9.140;2022-09-09T14:38:54;4.95;;;0.98;;
60847;SDS011;46681;47.696;9.140;2022-09-09T14:41:27;6.13;;;1.00;;
60847;SDS011;46681;47.696;9.140;2022-09-09T14:43:57;4.05;;;1.10;;
60847;SDS011;46681;47.696;9.140;2022-09-09T14:49:44;3.42;;;0.90;;
60847;SDS011;46681;47.696;9.140;2022-09-09T14:52:28;3.88;;;1.08;;
60847;SDS011;46681;47.696;9.140;2022-09-09T14:55:34;5.45;;;1.10;;
60847;SDS011;46681;47.696;9.140;2022-09-09T15:01:07;4.22;;;0.80;;
60847;SDS011;46681;47.696;9.140;2022-09-09T15:03:48;2.90;;;0.98;;
60847;SDS011;46681;47.696;9.140;2022-09-09T15:06:26;3.65;;;0.85;;
60847;SDS011;46681;47.696;9.140;2022-09-09T15:09:21;3.70;;;0.93;;
60847;SDS011;46681;47.696;9.140;2022-09-09T15:12:04;3.75;;;1.08;;
60847;SDS011;46681;47.696;9.140;2022-09-09T15:14:42;5.60;;;1.23;;
60847;SDS011;46681;47.696;9.140;2022-09-09T15:20:19;8.10;;;1.23;;
60847;SDS011;46681;47.696;9.140;2022-09-09T15:22:54;3.55;;;0.82;;
60847;SDS011;46681;47.696;9.140;2022-09-09T15:27:57;5.03;;;1.10;;
60847;SDS011;46681;47.696;9.140;2022-09-09T15:30:30;4.88;;;1.08;;
60847;SDS011;46681;47.696;9.140;2022-09-09T15:32:57;4.10;;;0.98;;
60847;SDS011;46681;47.696;9.140;2022-09-09T15:35:26;5.68;;;1.00;;
60847;SDS011;46681;47.696;9.140;2022-09-09T15:38:08;5.18;;;1.13;;
60847;SDS011;46681;47.696;9.140;2022-09-09T15:40:38;6.70;;;0.98;;
60847;SDS011;46681;47.696;9.140;2022-09-09T15:43:24;6.33;;;1.00;;
60847;SDS011;46681;47.696;9.140;2022-09-09T15:45:52;5.05;;;0.95;;
60847;SDS011;46681;47.696;9.140;2022-09-09T15:48:54;3.45;;;0.85;;
60847;SDS011;46681;47.696;9.140;2022-09-09T15:51:28;3.83;;;0.90;;
60847;SDS011;46681;47.696;9.140;2022-09-09T15:54:02;3.42;;;0.88;;
60847;SDS011;46681;47.696;9.140;2022-09-09T15:56:55;5.43;;;1.00;;
60847;SDS011;46681;47.696;9.140;2022-09-09T15:59:37;6.22;;;1.02;;
60847;SDS011;46681;47.696;9.140;2022-09-09T16:02:10;4.70;;;1.00;;
60847;SDS011;46681;47.696;9.140;2022-09-09T16:04:37;2.33;;;0.80;;
60847;SDS011;46681;47.696;9.140;2022-09-09T16:07:03;2.80;;;0.85;;
60847;SDS011;46681;47.696;9.140;2022-09-09T16:09:35;5.25;;;0.82;;
60847;SDS011;46681;47.696;9.140;2022-09-09T16:12:03;3.60;;;1.00;;
60847;SDS011;46681;47.696;9.140;2022-09-09T16:14:40;2.67;;;0.90;;
60847;SDS011;46681;47.696;9.140;2022-09-09T16:17:08;2.45;;;0.80;;
60847;SDS011;46681;47.696;9.140;2022-09-09T16:19:49;4.95;;;0.98;;
60847;SDS011;46681;47.696;9.140;2022-09-09T16:22:18;2.78;;;0.80;;
60847;SDS011;46681;47.696;9.140;2022-09-09T16:24:50;1.60;;;0.60;;
60847;SDS011;46681;47.696;9.140;2022-09-09T16:27:25;2.38;;;0.80;;
60847;SDS011;46681;47.696;9.140;2022-09-09T16:30:00;5.47;;;0.98;;
60847;SDS011;46681;47.696;9.140;2022-09-09T16:32:37;1.90;;;0.75;;
60847;SDS011;46681;47.696;9.140;2022-09-09T16:35:13;2.35;;;0.77;;
60847;SDS011;46681;47.696;9.140;2022-09-09T16:38:15;5.75;;;0.82;;
60847;SDS011;46681;47.696;9.140;2022-09-09T16:40:59;2.75;;;0.82;;
60847;SDS011;46681;47.696;9.140;2022-09-09T16:43:38;4.75;;;1.02;;
60847;SDS011;46681;47.696;9.140;2022-09-09T16:46:48;3.45;;;1.00;;
60847;SDS011;46681;47.696;9.140;2022-09-09T16:49:46;3.92;;;0.70;;
60847;SDS011;46681;47.696;9.140;2022-09-09T16:52:13;2.45;;;0.75;;
60847;SDS011;46681;47.696;9.140;2022-09-09T16:54:46;2.65;;;0.80;;
60847;SDS011;46681;47.696;9.140;2022-09-09T16:57:14;3.88;;;0.80;;
60847;SDS011;46681;47.696;9.140;2022-09-09T16:59:45;2.63;;;0.80;;
60847;SDS011;46681;47.696;9.140;2022-09-09T17:05:15;4.68;;;0.93;;
60847;SDS011;46681;47.696;9.140;2022-09-09T17:10:43;1.38;;;0.70;;
60847;SDS011;46681;47.696;9.140;2022-09-09T17:13:19;2.40;;;0.80;;
60847;SDS011;46681;47.696;9.140;2022-09-09T17:16:28;2.30;;;0.70;;
60847;SDS011;46681;47.696;9.140;2022-09-09T17:19:17;3.28;;;1.00;;
60847;SDS011;46681;47.696;9.140;2022-09-09T17:21:58;2.90;;;0.88;;
60847;SDS011;46681;47.696;9.140;2022-09-09T17:24:44;1.52;;;0.70;;
60847;SDS011;46681;47.696;9.140;2022-09-09T17:27:17;2.83;;;0.80;;
60847;SDS011;46681;47.696;9.140;2022-09-09T17:29:56;3.65;;;1.00;;
60847;SDS011;46681;47.696;9.140;2022-09-09T17:35:29;2.05;;;0.70;;
60847;SDS011;46681;47.696;9.140;2022-09-09T17:38:01;3.50;;;1.00;;
60847;SDS011;46681;47.696;9.140;2022-09-09T17:40:48;4.60;;;0.93;;
60847;SDS011;46681;47.696;9.140;2022-09-09T17:43:57;3.53;;;0.98;;
60847;SDS011;46681;47.696;9.140;2022-09-09T17:46:46;4.05;;;0.75;;
60847;SDS011;46681;47.696;9.140;2022-09-09T17:52:17;2.88;;;0.80;;
60847;SDS011;46681;47.696;9.140;2022-09-09T17:55:09;2.13;;;0.82;;
60847;SDS011;46681;47.696;9.140;2022-09-09T18:00:54;3.42;;;0.90;;
60847;SDS011;46681;47.696;9.140;2022-09-09T18:03:44;4.30;;;0.80;;
60847;SDS011;46681;47.696;9.140;2022-09-09T18:06:35;7.53;;;1.20;;
60847;SDS011;46681;47.696;9.140;2022-09-09T18:09:30;8.13;;;1.10;;
60847;SDS011;46681;47.696;9.140;2022-09-09T18:12:26;6.95;;;1.45;;
60847;SDS011;46681;47.696;9.140;2022-09-09T18:18:07;5.07;;;1.00;;
60847;SDS011;46681;47.696;9.140;2022-09-09T18:20:40;8.00;;;1.17;;
60847;SDS011;46681;47.696;9.140;2022-09-09T18:23:16;5.93;;;1.10;;
60847;SDS011;46681;47.696;9.140;2022-09-09T18:25:49;5.20;;;1.05;;
60847;SDS011;46681;47.696;9.140;2022-09-09T18:28:17;5.50;;;1.13;;
60847;SDS011;46681;47.696;9.140;2022-09-09T18:30:58;5.03;;;1.00;;
60847;SDS011;46681;47.696;9.140;2022-09-09T18:33:44;3.85;;;0.95;;
60847;SDS011;46681;47.696;9.140;2022-09-09T18:36:31;4.70;;;1.00;;
60847;SDS011;46681;47.696;9.140;2022-09-09T18:39:13;3.13;;;0.90;;
60847;SDS011;46681;47.696;9.140;2022-09-09T18:41:49;5.05;;;1.00;;
60847;SDS011;46681;47.696;9.140;2022-09-09T18:44:33;3.70;;;1.00;;
60847;SDS011;46681;47.696;9.140;2022-09-09T18:47:14;4.53;;;1.10;;
60847;SDS011;46681;47.696;9.140;2022-09-09T18:49:48;3.78;;;1.02;;
60847;SDS011;46681;47.696;9.140;2022-09-09T18:52:17;6.07;;;1.08;;
60847;SDS011;46681;47.696;9.140;2022-09-09T18:54:51;2.55;;;0.90;;
60847;SDS011;46681;47.696;9.140;2022-09-09T18:57:17;3.47;;;1.00;;
60847;SDS011;46681;47.696;9.140;2022-09-09T18:59:44;3.50;;;0.80;;
60847;SDS011;46681;47.696;9.140;2022-09-09T19:02:15;3.00;;;0.77;;
60847;SDS011;46681;47.696;9.140;2022-09-09T19:04:47;3.58;;;0.90;;
60847;SDS011;46681;47.696;9.140;2022-09-09T19:07:13;6.18;;;1.20;;
60847;SDS011;46681;47.696;9.140;2022-09-09T19:09:50;4.13;;;0.98;;
60847;SDS011;46681;47.696;9.140;2022-09-09T19:12:16;5.15;;;0.90;;
60847;SDS011;46681;47.696;9.140;2022-09-09T19:14:49;3.60;;;0.90;;
60847;SDS011;46681;47.696;9.140;2022-09-09T19:17:17;2.70;;;0.95;;
60847;SDS011;46681;47.696;9.140;2022-09-09T19:19:45;4.05;;;0.90;;
60847;SDS011;46681;47.696;9.140;2022-09-09T19:22:16;2.45;;;0.90;;
60847;SDS011;46681;47.696;9.140;2022-09-09T19:24:54;2.65;;;0.90;;
60847;SDS011;46681;47.696;9.140;2022-09-09T19:27:26;3.22;;;0.90;;
60847;SDS011;46681;47.696;9.140;2022-09-09T19:29:52;1.85;;;0.80;;
60847;SDS011;46681;47.696;9.140;2022-09-09T19:32:19;2.45;;;0.77;;
60847;SDS011;46681;47.696;9.140;2022-09-09T19:35:02;5.20;;;0.95;;
60847;SDS011;46681;47.696;9.140;2022-09-09T19:37:30;3.03;;;0.80;;
60847;SDS011;46681;47.696;9.140;2022-09-09T19:39:58;2.97;;;1.00;;